Nearby METAR Reports

 

YCOM - Cooma Snowy Mtns, Australia
Distance from station: NE 158km
Updated: 18/05/2022 14:08
NOT Current
Clear
Clear
 Wind from W
Wind: W 31 km/h, Gust: 50 km/h
Temperature: 11°C
Dew Point: -1°C
Humidity: 44%
Barometer: 1016 hPa
Clouds: Clear
Visibility: 10 km
2022/05/18 04:08 YCOM 180408Z AUTO 27017G27KT 9999 // NCD 11/M01 Q1016
YMAY - Albury Airport, Australia
Distance from station: NNW 165km
Updated: 20/05/2022 18:30
NOT Current
Clear
Clear
 Wind from SE
Wind: SE 2 km/h
Temperature: 9°C
Dew Point: 7°C
Humidity: 87%
Barometer: 1032 hPa
Clouds: Clear
Visibility: 4 km
2022/05/20 08:30 YMAY 200830Z AUTO 13001KT 3500 // NCD 09/07 Q1032
 
YWGT - Wangaratta Airport, Australia
Distance from station: NW 172km
Updated: 20/05/2022 08:20
NOT Current
Partly cloudy
Partly cloudy
 Wind from calm
Wind: Calm
Temperature: 2°C
Dew Point: 2°C
Humidity: 100%
Barometer: 1033 hPa
Clouds: Partly cloudy
Visibility: 8 km
Cloud details: Partly cloudy 61 m
2022/05/19 22:20 YWGT 192220Z AUTO 00000KT 8000 // SCT002 02/02 Q1033
YMER - Merimbula Airport, Australia
Distance from station: ENE 192km
Updated: 15/05/2022 21:30
NOT Current
Mist, Clear
Mist, Clear
 Wind from calm
Wind: Calm
Temperature: 12°C
Dew Point: 12°C
Humidity: 100%
Barometer: 1010 hPa
Summary: Mist
Clouds: Clear
Visibility: 2 km
2022/05/15 11:30 YMER 151130Z AUTO 00000KT 1700 BR NCD 12/12 Q1010